sensor_id;sensor_type;location;lat;lon;timestamp;P1;durP1;ratioP1;P2;durP2;ratioP2
51981;SDS011;37998;53.416;6.730;2022-08-24T00:00:49;46.00;;;41.15;;
51981;SDS011;37998;53.416;6.730;2022-08-24T00:03:14;45.13;;;40.67;;
51981;SDS011;37998;53.416;6.730;2022-08-24T00:05:40;44.35;;;39.90;;
51981;SDS011;37998;53.416;6.730;2022-08-24T00:08:06;38.75;;;34.58;;
51981;SDS011;37998;53.416;6.730;2022-08-24T00:10:32;39.72;;;35.72;;
51981;SDS011;37998;53.416;6.730;2022-08-24T00:12:57;49.03;;;43.75;;
51981;SDS011;37998;53.416;6.730;2022-08-24T00:15:23;50.83;;;45.85;;
51981;SDS011;37998;53.416;6.730;2022-08-24T00:17:49;55.80;;;49.88;;
51981;SDS011;37998;53.416;6.730;2022-08-24T00:20:15;55.20;;;49.78;;
51981;SDS011;37998;53.416;6.730;2022-08-24T00:22:41;59.63;;;53.47;;
51981;SDS011;37998;53.416;6.730;2022-08-24T00:25:08;51.10;;;45.78;;
51981;SDS011;37998;53.416;6.730;2022-08-24T00:27:36;60.78;;;53.65;;
51981;SDS011;37998;53.416;6.730;2022-08-24T00:30:06;62.75;;;56.17;;
51981;SDS011;37998;53.416;6.730;2022-08-24T00:32:33;50.22;;;42.22;;
51981;SDS011;37998;53.416;6.730;2022-08-24T00:35:01;50.20;;;44.78;;
51981;SDS011;37998;53.416;6.730;2022-08-24T00:37:29;51.72;;;46.30;;
51981;SDS011;37998;53.416;6.730;2022-08-24T00:39:56;56.72;;;50.63;;
51981;SDS011;37998;53.416;6.730;2022-08-24T00:42:22;51.97;;;46.53;;
51981;SDS011;37998;53.416;6.730;2022-08-24T00:44:48;56.40;;;50.40;;
51981;SDS011;37998;53.416;6.730;2022-08-24T00:47:18;55.85;;;48.80;;
51981;SDS011;37998;53.416;6.730;2022-08-24T00:50:09;50.95;;;45.55;;
51981;SDS011;37998;53.416;6.730;2022-08-24T00:52:39;51.35;;;45.92;;
51981;SDS011;37998;53.416;6.730;2022-08-24T00:55:15;51.20;;;43.83;;
51981;SDS011;37998;53.416;6.730;2022-08-24T00:57:44;50.25;;;44.95;;
51981;SDS011;37998;53.416;6.730;2022-08-24T01:00:14;50.08;;;43.92;;
51981;SDS011;37998;53.416;6.730;2022-08-24T01:02:44;51.60;;;46.08;;
51981;SDS011;37998;53.416;6.730;2022-08-24T01:05:13;50.30;;;44.50;;
51981;SDS011;37998;53.416;6.730;2022-08-24T01:07:42;51.47;;;44.92;;
51981;SDS011;37998;53.416;6.730;2022-08-24T01:10:09;48.75;;;43.53;;
51981;SDS011;37998;53.416;6.730;2022-08-24T01:12:38;46.92;;;42.28;;
51981;SDS011;37998;53.416;6.730;2022-08-24T01:15:08;48.53;;;43.38;;
51981;SDS011;37998;53.416;6.730;2022-08-24T01:17:35;49.90;;;44.55;;
51981;SDS011;37998;53.416;6.730;2022-08-24T01:20:20;49.50;;;44.17;;
51981;SDS011;37998;53.416;6.730;2022-08-24T01:23:07;48.80;;;43.60;;
51981;SDS011;37998;53.416;6.730;2022-08-24T01:25:40;46.75;;;42.15;;
51981;SDS011;37998;53.416;6.730;2022-08-24T01:28:16;49.22;;;44.13;;
51981;SDS011;37998;53.416;6.730;2022-08-24T01:30:44;43.92;;;39.50;;
51981;SDS011;37998;53.416;6.730;2022-08-24T01:33:11;41.47;;;37.47;;
51981;SDS011;37998;53.416;6.730;2022-08-24T01:35:47;42.20;;;37.95;;
51981;SDS011;37998;53.416;6.730;2022-08-24T01:38:13;43.25;;;39.00;;
51981;SDS011;37998;53.416;6.730;2022-08-24T01:40:43;43.53;;;39.22;;
51981;SDS011;37998;53.416;6.730;2022-08-24T01:43:12;42.13;;;37.75;;
51981;SDS011;37998;53.416;6.730;2022-08-24T01:45:39;39.53;;;35.63;;
51981;SDS011;37998;53.416;6.730;2022-08-24T01:48:05;39.95;;;35.28;;
51981;SDS011;37998;53.416;6.730;2022-08-24T01:50:31;41.00;;;37.00;;
51981;SDS011;37998;53.416;6.730;2022-08-24T01:52:57;39.60;;;35.70;;
51981;SDS011;37998;53.416;6.730;2022-08-24T01:55:25;40.78;;;36.55;;
51981;SDS011;37998;53.416;6.730;2022-08-24T01:57:51;40.42;;;36.30;;
51981;SDS011;37998;53.416;6.730;2022-08-24T02:00:17;36.25;;;32.55;;
51981;SDS011;37998;53.416;6.730;2022-08-24T02:02:43;37.97;;;33.80;;
51981;SDS011;37998;53.416;6.730;2022-08-24T02:05:10;39.40;;;35.25;;
51981;SDS011;37998;53.416;6.730;2022-08-24T02:07:38;40.58;;;36.33;;
51981;SDS011;37998;53.416;6.730;2022-08-24T02:10:05;40.10;;;36.00;;
51981;SDS011;37998;53.416;6.730;2022-08-24T02:12:33;38.45;;;34.65;;
51981;SDS011;37998;53.416;6.730;2022-08-24T02:15:00;38.67;;;34.72;;
51981;SDS011;37998;53.416;6.730;2022-08-24T02:17:27;39.22;;;35.35;;
51981;SDS011;37998;53.416;6.730;2022-08-24T02:19:53;39.83;;;35.80;;
51981;SDS011;37998;53.416;6.730;2022-08-24T02:22:19;37.58;;;33.83;;
51981;SDS011;37998;53.416;6.730;2022-08-24T02:24:44;41.63;;;37.45;;
51981;SDS011;37998;53.416;6.730;2022-08-24T02:27:10;39.88;;;35.80;;
51981;SDS011;37998;53.416;6.730;2022-08-24T02:29:37;42.88;;;38.30;;
51981;SDS011;37998;53.416;6.730;2022-08-24T02:32:03;44.00;;;39.67;;
51981;SDS011;37998;53.416;6.730;2022-08-24T02:34:29;44.88;;;40.10;;
51981;SDS011;37998;53.416;6.730;2022-08-24T02:36:54;48.70;;;43.80;;
51981;SDS011;37998;53.416;6.730;2022-08-24T02:39:20;46.85;;;42.05;;
51981;SDS011;37998;53.416;6.730;2022-08-24T02:41:46;48.05;;;43.35;;
51981;SDS011;37998;53.416;6.730;2022-08-24T02:44:11;46.08;;;41.55;;
51981;SDS011;37998;53.416;6.730;2022-08-24T02:46:37;47.08;;;42.33;;
51981;SDS011;37998;53.416;6.730;2022-08-24T02:49:04;46.90;;;42.05;;
51981;SDS011;37998;53.416;6.730;2022-08-24T02:51:31;46.08;;;41.55;;
51981;SDS011;37998;53.416;6.730;2022-08-24T02:53:58;44.92;;;40.45;;
51981;SDS011;37998;53.416;6.730;2022-08-24T02:56:25;42.58;;;38.47;;
51981;SDS011;37998;53.416;6.730;2022-08-24T02:58:55;40.70;;;36.83;;
51981;SDS011;37998;53.416;6.730;2022-08-24T03:01:22;43.20;;;39.13;;
51981;SDS011;37998;53.416;6.730;2022-08-24T03:03:47;41.00;;;37.05;;
51981;SDS011;37998;53.416;6.730;2022-08-24T03:06:13;41.13;;;37.22;;
51981;SDS011;37998;53.416;6.730;2022-08-24T03:08:39;40.53;;;36.63;;
51981;SDS011;37998;53.416;6.730;2022-08-24T03:11:05;39.22;;;35.65;;
51981;SDS011;37998;53.416;6.730;2022-08-24T03:13:32;41.25;;;37.28;;
51981;SDS011;37998;53.416;6.730;2022-08-24T03:15:59;41.92;;;37.97;;
51981;SDS011;37998;53.416;6.730;2022-08-24T03:18:25;39.88;;;36.30;;
51981;SDS011;37998;53.416;6.730;2022-08-24T03:20:54;42.13;;;38.15;;
51981;SDS011;37998;53.416;6.730;2022-08-24T03:23:21;39.97;;;36.25;;
51981;SDS011;37998;53.416;6.730;2022-08-24T03:25:48;37.80;;;34.45;;
51981;SDS011;37998;53.416;6.730;2022-08-24T03:28:15;37.38;;;33.97;;
51981;SDS011;37998;53.416;6.730;2022-08-24T03:30:45;36.40;;;33.05;;
51981;SDS011;37998;53.416;6.730;2022-08-24T03:33:12;37.40;;;33.88;;
51981;SDS011;37998;53.416;6.730;2022-08-24T03:35:38;40.03;;;36.42;;
51981;SDS011;37998;53.416;6.730;2022-08-24T03:38:04;39.90;;;36.33;;
51981;SDS011;37998;53.416;6.730;2022-08-24T03:40:31;37.40;;;33.88;;
51981;SDS011;37998;53.416;6.730;2022-08-24T03:42:58;38.45;;;34.80;;
51981;SDS011;37998;53.416;6.730;2022-08-24T03:45:26;36.42;;;33.08;;
51981;SDS011;37998;53.416;6.730;2022-08-24T03:47:52;35.35;;;32.10;;
51981;SDS011;37998;53.416;6.730;2022-08-24T03:50:19;34.97;;;31.88;;
51981;SDS011;37998;53.416;6.730;2022-08-24T03:52:46;33.88;;;30.75;;
51981;SDS011;37998;53.416;6.730;2022-08-24T03:55:12;31.08;;;28.38;;
51981;SDS011;37998;53.416;6.730;2022-08-24T03:57:38;29.70;;;27.13;;
51981;SDS011;37998;53.416;6.730;2022-08-24T04:00:04;32.70;;;29.92;;
51981;SDS011;37998;53.416;6.730;2022-08-24T04:02:33;32.42;;;29.58;;
51981;SDS011;37998;53.416;6.730;2022-08-24T04:04:58;30.38;;;27.77;;
51981;SDS011;37998;53.416;6.730;2022-08-24T04:07:24;36.47;;;30.75;;
51981;SDS011;37998;53.416;6.730;2022-08-24T04:09:50;55.22;;;31.92;;
51981;SDS011;37998;53.416;6.730;2022-08-24T04:12:15;33.53;;;30.40;;
51981;SDS011;37998;53.416;6.730;2022-08-24T04:14:41;34.28;;;31.13;;
51981;SDS011;37998;53.416;6.730;2022-08-24T04:17:08;33.10;;;30.08;;
51981;SDS011;37998;53.416;6.730;2022-08-24T04:19:35;33.42;;;29.92;;
51981;SDS011;37998;53.416;6.730;2022-08-24T04:22:01;33.20;;;30.00;;
51981;SDS011;37998;53.416;6.730;2022-08-24T04:24:27;32.28;;;28.98;;
51981;SDS011;37998;53.416;6.730;2022-08-24T04:26:53;32.92;;;29.65;;
51981;SDS011;37998;53.416;6.730;2022-08-24T04:29:18;30.70;;;27.63;;
51981;SDS011;37998;53.416;6.730;2022-08-24T04:31:45;30.65;;;26.77;;
51981;SDS011;37998;53.416;6.730;2022-08-24T04:34:12;31.35;;;28.10;;
51981;SDS011;37998;53.416;6.730;2022-08-24T04:36:40;73.40;;;28.48;;
51981;SDS011;37998;53.416;6.730;2022-08-24T04:39:07;32.85;;;29.48;;
51981;SDS011;37998;53.416;6.730;2022-08-24T04:41:32;58.83;;;30.27;;
51981;SDS011;37998;53.416;6.730;2022-08-24T04:43:59;54.72;;;28.40;;
51981;SDS011;37998;53.416;6.730;2022-08-24T04:46:25;57.22;;;29.85;;
51981;SDS011;37998;53.416;6.730;2022-08-24T04:48:52;198.90;;;35.08;;
51981;SDS011;37998;53.416;6.730;2022-08-24T04:51:17;121.38;;;30.58;;
51981;SDS011;37998;53.416;6.730;2022-08-24T04:53:44;58.58;;;29.73;;
51981;SDS011;37998;53.416;6.730;2022-08-24T04:56:12;74.97;;;29.92;;
51981;SDS011;37998;53.416;6.730;2022-08-24T04:58:40;45.60;;;27.17;;
51981;SDS011;37998;53.416;6.730;2022-08-24T05:01:06;27.45;;;25.08;;
51981;SDS011;37998;53.416;6.730;2022-08-24T05:03:33;25.77;;;23.40;;
51981;SDS011;37998;53.416;6.730;2022-08-24T05:05:59;26.08;;;23.70;;
51981;SDS011;37998;53.416;6.730;2022-08-24T05:08:25;25.35;;;22.92;;
51981;SDS011;37998;53.416;6.730;2022-08-24T05:10:51;26.17;;;23.83;;
51981;SDS011;37998;53.416;6.730;2022-08-24T05:13:16;27.92;;;25.52;;
51981;SDS011;37998;53.416;6.730;2022-08-24T05:15:46;26.73;;;24.52;;
51981;SDS011;37998;53.416;6.730;2022-08-24T05:18:13;27.20;;;24.90;;
51981;SDS011;37998;53.416;6.730;2022-08-24T05:20:40;28.65;;;26.05;;
51981;SDS011;37998;53.416;6.730;2022-08-24T05:23:07;27.55;;;25.20;;
51981;SDS011;37998;53.416;6.730;2022-08-24T05:25:33;24.25;;;22.35;;
51981;SDS011;37998;53.416;6.730;2022-08-24T05:27:59;26.00;;;23.83;;
51981;SDS011;37998;53.416;6.730;2022-08-24T05:30:24;24.65;;;22.65;;
51981;SDS011;37998;53.416;6.730;2022-08-24T05:32:51;24.33;;;22.10;;
51981;SDS011;37998;53.416;6.730;2022-08-24T05:35:16;24.63;;;22.63;;
51981;SDS011;37998;53.416;6.730;2022-08-24T05:37:42;25.05;;;22.90;;
51981;SDS011;37998;53.416;6.730;2022-08-24T05:40:09;23.92;;;21.92;;
51981;SDS011;37998;53.416;6.730;2022-08-24T05:42:36;26.20;;;24.00;;
51981;SDS011;37998;53.416;6.730;2022-08-24T05:45:03;26.50;;;24.05;;
51981;SDS011;37998;53.416;6.730;2022-08-24T05:47:29;26.15;;;23.83;;
51981;SDS011;37998;53.416;6.730;2022-08-24T05:49:55;23.83;;;21.48;;
51981;SDS011;37998;53.416;6.730;2022-08-24T05:52:21;27.90;;;25.42;;
51981;SDS011;37998;53.416;6.730;2022-08-24T05:54:53;25.88;;;23.65;;
51981;SDS011;37998;53.416;6.730;2022-08-24T05:57:22;26.05;;;23.90;;
51981;SDS011;37998;53.416;6.730;2022-08-24T05:59:49;26.92;;;24.52;;
51981;SDS011;37998;53.416;6.730;2022-08-24T06:02:16;27.35;;;24.95;;
51981;SDS011;37998;53.416;6.730;2022-08-24T06:04:43;26.40;;;24.20;;
51981;SDS011;37998;53.416;6.730;2022-08-24T06:07:09;28.27;;;25.67;;
51981;SDS011;37998;53.416;6.730;2022-08-24T06:09:36;27.08;;;24.77;;
51981;SDS011;37998;53.416;6.730;2022-08-24T06:12:03;31.35;;;28.27;;
51981;SDS011;37998;53.416;6.730;2022-08-24T06:14:30;33.60;;;30.55;;
51981;SDS011;37998;53.416;6.730;2022-08-24T06:16:57;30.80;;;27.90;;
51981;SDS011;37998;53.416;6.730;2022-08-24T06:19:23;33.03;;;29.77;;
51981;SDS011;37998;53.416;6.730;2022-08-24T06:21:51;37.53;;;33.53;;
51981;SDS011;37998;53.416;6.730;2022-08-24T06:24:18;40.35;;;36.65;;
51981;SDS011;37998;53.416;6.730;2022-08-24T06:27:04;41.97;;;37.78;;
51981;SDS011;37998;53.416;6.730;2022-08-24T06:29:46;38.63;;;34.95;;
51981;SDS011;37998;53.416;6.730;2022-08-24T06:32:12;39.17;;;35.17;;
51981;SDS011;37998;53.416;6.730;2022-08-24T06:34:38;38.80;;;35.03;;
51981;SDS011;37998;53.416;6.730;2022-08-24T06:37:04;39.70;;;35.80;;
51981;SDS011;37998;53.416;6.730;2022-08-24T06:39:29;27.92;;;25.50;;
51981;SDS011;37998;53.416;6.730;2022-08-24T06:41:55;32.65;;;29.67;;
51981;SDS011;37998;53.416;6.730;2022-08-24T06:44:21;32.95;;;29.88;;
51981;SDS011;37998;53.416;6.730;2022-08-24T06:46:47;32.13;;;28.75;;
51981;SDS011;37998;53.416;6.730;2022-08-24T06:49:12;37.25;;;33.65;;
51981;SDS011;37998;53.416;6.730;2022-08-24T06:51:38;38.38;;;34.33;;
51981;SDS011;37998;53.416;6.730;2022-08-24T06:54:04;39.55;;;35.08;;
51981;SDS011;37998;53.416;6.730;2022-08-24T06:56:29;38.13;;;34.38;;
51981;SDS011;37998;53.416;6.730;2022-08-24T06:58:55;38.58;;;35.00;;
51981;SDS011;37998;53.416;6.730;2022-08-24T07:01:24;38.50;;;34.55;;
51981;SDS011;37998;53.416;6.730;2022-08-24T07:03:52;38.97;;;33.47;;
51981;SDS011;37998;53.416;6.730;2022-08-24T07:06:18;34.33;;;30.70;;
51981;SDS011;37998;53.416;6.730;2022-08-24T07:08:45;31.58;;;28.40;;
51981;SDS011;37998;53.416;6.730;2022-08-24T07:11:10;32.05;;;28.95;;
51981;SDS011;37998;53.416;6.730;2022-08-24T07:13:39;31.63;;;28.52;;
51981;SDS011;37998;53.416;6.730;2022-08-24T07:16:05;28.38;;;25.33;;
51981;SDS011;37998;53.416;6.730;2022-08-24T07:18:31;25.70;;;23.02;;
51981;SDS011;37998;53.416;6.730;2022-08-24T07:21:00;23.60;;;21.10;;
51981;SDS011;37998;53.416;6.730;2022-08-24T07:23:26;24.33;;;21.92;;
51981;SDS011;37998;53.416;6.730;2022-08-24T07:25:53;17.25;;;15.45;;
51981;SDS011;37998;53.416;6.730;2022-08-24T07:28:19;20.95;;;18.83;;
51981;SDS011;37998;53.416;6.730;2022-08-24T07:30:45;17.75;;;14.77;;
51981;SDS011;37998;53.416;6.730;2022-08-24T07:33:11;19.33;;;17.27;;
51981;SDS011;37998;53.416;6.730;2022-08-24T07:35:37;16.55;;;14.90;;
51981;SDS011;37998;53.416;6.730;2022-08-24T07:38:03;16.00;;;14.38;;
51981;SDS011;37998;53.416;6.730;2022-08-24T07:40:30;14.75;;;13.35;;
51981;SDS011;37998;53.416;6.730;2022-08-24T07:42:57;14.95;;;13.45;;
51981;SDS011;37998;53.416;6.730;2022-08-24T07:45:23;12.93;;;11.45;;
51981;SDS011;37998;53.416;6.730;2022-08-24T07:47:50;15.23;;;13.68;;
51981;SDS011;37998;53.416;6.730;2022-08-24T07:50:16;13.18;;;10.45;;
51981;SDS011;37998;53.416;6.730;2022-08-24T07:52:42;13.85;;;12.55;;
51981;SDS011;37998;53.416;6.730;2022-08-24T07:55:10;14.18;;;12.70;;
51981;SDS011;37998;53.416;6.730;2022-08-24T07:57:37;14.10;;;12.63;;
51981;SDS011;37998;53.416;6.730;2022-08-24T08:00:07;11.95;;;10.32;;
51981;SDS011;37998;53.416;6.730;2022-08-24T08:02:36;13.33;;;11.83;;
51981;SDS011;37998;53.416;6.730;2022-08-24T08:05:03;11.32;;;9.90;;
51981;SDS011;37998;53.416;6.730;2022-08-24T08:07:29;12.75;;;11.55;;
51981;SDS011;37998;53.416;6.730;2022-08-24T08:09:55;13.23;;;11.85;;
51981;SDS011;37998;53.416;6.730;2022-08-24T08:12:20;12.73;;;11.43;;
51981;SDS011;37998;53.416;6.730;2022-08-24T08:14:46;11.85;;;10.75;;
51981;SDS011;37998;53.416;6.730;2022-08-24T08:17:13;12.52;;;11.32;;
51981;SDS011;37998;53.416;6.730;2022-08-24T08:19:39;11.10;;;10.00;;
51981;SDS011;37998;53.416;6.730;2022-08-24T08:22:06;11.32;;;10.23;;
51981;SDS011;37998;53.416;6.730;2022-08-24T08:24:50;14.52;;;12.70;;
51981;SDS011;37998;53.416;6.730;2022-08-24T08:27:16;12.45;;;11.20;;
51981;SDS011;37998;53.416;6.730;2022-08-24T08:29:42;15.95;;;10.65;;
51981;SDS011;37998;53.416;6.730;2022-08-24T08:32:09;13.25;;;12.05;;
51981;SDS011;37998;53.416;6.730;2022-08-24T08:37:07;10.02;;;9.13;;
51981;SDS011;37998;53.416;6.730;2022-08-24T08:39:33;12.10;;;9.00;;
51981;SDS011;37998;53.416;6.730;2022-08-24T08:44:59;11.10;;;9.95;;
51981;SDS011;37998;53.416;6.730;2022-08-24T08:50:36;14.75;;;8.90;;
51981;SDS011;37998;53.416;6.730;2022-08-24T09:01:38;11.02;;;7.85;;
51981;SDS011;37998;53.416;6.730;2022-08-24T09:12:16;10.65;;;8.52;;
51981;SDS011;37998;53.416;6.730;2022-08-24T09:21:11;9.93;;;7.63;;
51981;SDS011;37998;53.416;6.730;2022-08-24T09:23:58;9.80;;;8.80;;
51981;SDS011;37998;53.416;6.730;2022-08-24T09:29:46;11.60;;;8.27;;
51981;SDS011;37998;53.416;6.730;2022-08-24T09:32:33;8.82;;;7.38;;
51981;SDS011;37998;53.416;6.730;2022-08-24T09:35:12;9.95;;;6.85;;
51981;SDS011;37998;53.416;6.730;2022-08-24T09:43:36;8.88;;;6.85;;
51981;SDS011;37998;53.416;6.730;2022-08-24T09:52:32;6.90;;;4.43;;
51981;SDS011;37998;53.416;6.730;2022-08-24T09:55:19;7.25;;;5.70;;
51981;SDS011;37998;53.416;6.730;2022-08-24T09:57:51;8.77;;;6.20;;
51981;SDS011;37998;53.416;6.730;2022-08-24T10:03:23;7.65;;;6.93;;
51981;SDS011;37998;53.416;6.730;2022-08-24T10:06:24;6.90;;;5.88;;
51981;SDS011;37998;53.416;6.730;2022-08-24T10:09:13;6.45;;;5.57;;
51981;SDS011;37998;53.416;6.730;2022-08-24T10:12:02;7.60;;;5.15;;
51981;SDS011;37998;53.416;6.730;2022-08-24T10:25:45;7.88;;;4.43;;
51981;SDS011;37998;53.416;6.730;2022-08-24T10:31:09;8.40;;;4.78;;
51981;SDS011;37998;53.416;6.730;2022-08-24T10:33:45;5.95;;;5.35;;
51981;SDS011;37998;53.416;6.730;2022-08-24T10:36:37;5.55;;;4.20;;
51981;SDS011;37998;53.416;6.730;2022-08-24T10:53:51;10.25;;;5.20;;
51981;SDS011;37998;53.416;6.730;2022-08-24T10:56:18;7.43;;;5.75;;
51981;SDS011;37998;53.416;6.730;2022-08-24T11:02:08;5.93;;;5.15;;
51981;SDS011;37998;53.416;6.730;2022-08-24T11:04:36;5.30;;;4.10;;
51981;SDS011;37998;53.416;6.730;2022-08-24T11:07:17;5.30;;;3.45;;
51981;SDS011;37998;53.416;6.730;2022-08-24T11:09:45;4.35;;;3.50;;
51981;SDS011;37998;53.416;6.730;2022-08-24T11:14:55;7.10;;;5.07;;
51981;SDS011;37998;53.416;6.730;2022-08-24T11:17:29;8.57;;;5.78;;
51981;SDS011;37998;53.416;6.730;2022-08-24T11:19:56;8.15;;;6.97;;
51981;SDS011;37998;53.416;6.730;2022-08-24T11:22:33;10.55;;;8.18;;
51981;SDS011;37998;53.416;6.730;2022-08-24T11:25:21;12.30;;;9.50;;
51981;SDS011;37998;53.416;6.730;2022-08-24T11:27:51;10.45;;;8.98;;
51981;SDS011;37998;53.416;6.730;2022-08-24T11:30:27;13.82;;;9.50;;
51981;SDS011;37998;53.416;6.730;2022-08-24T11:35:28;11.82;;;10.55;;
51981;SDS011;37998;53.416;6.730;2022-08-24T11:40:41;11.82;;;9.50;;
51981;SDS011;37998;53.416;6.730;2022-08-24T11:43:33;12.93;;;10.88;;
51981;SDS011;37998;53.416;6.730;2022-08-24T11:46:23;15.63;;;9.85;;
51981;SDS011;37998;53.416;6.730;2022-08-24T11:59:50;16.40;;;9.98;;
51981;SDS011;37998;53.416;6.730;2022-08-24T12:11:42;12.20;;;8.65;;
51981;SDS011;37998;53.416;6.730;2022-08-24T12:20:04;6.95;;;6.13;;
51981;SDS011;37998;53.416;6.730;2022-08-24T12:22:51;10.98;;;6.03;;
51981;SDS011;37998;53.416;6.730;2022-08-24T12:25:23;9.55;;;6.45;;
51981;SDS011;37998;53.416;6.730;2022-08-24T12:28:20;9.45;;;6.93;;
51981;SDS011;37998;53.416;6.730;2022-08-24T12:30:49;10.23;;;5.85;;
51981;SDS011;37998;53.416;6.730;2022-08-24T12:33:17;10.77;;;5.45;;
51981;SDS011;37998;53.416;6.730;2022-08-24T12:35:52;8.30;;;6.25;;
51981;SDS011;37998;53.416;6.730;2022-08-24T12:38:33;7.97;;;5.90;;
51981;SDS011;37998;53.416;6.730;2022-08-24T12:43:48;8.38;;;6.22;;
51981;SDS011;37998;53.416;6.730;2022-08-24T12:46:19;7.95;;;6.07;;
51981;SDS011;37998;53.416;6.730;2022-08-24T12:48:50;7.97;;;6.00;;
51981;SDS011;37998;53.416;6.730;2022-08-24T12:59:24;7.95;;;6.45;;
51981;SDS011;37998;53.416;6.730;2022-08-24T13:33:30;9.63;;;5.35;;
51981;SDS011;37998;53.416;6.730;2022-08-24T13:38:39;11.02;;;5.57;;
51981;SDS011;37998;53.416;6.730;2022-08-24T13:41:32;5.60;;;5.05;;
51981;SDS011;37998;53.416;6.730;2022-08-24T13:47:13;8.48;;;5.13;;
51981;SDS011;37998;53.416;6.730;2022-08-24T13:50:04;26.85;;;20.42;;
51981;SDS011;37998;53.416;6.730;2022-08-24T14:09:44;4.90;;;3.40;;
51981;SDS011;37998;53.416;6.730;2022-08-24T14:12:44;6.60;;;4.38;;
51981;SDS011;37998;53.416;6.730;2022-08-24T14:18:12;3.80;;;3.38;;
51981;SDS011;37998;53.416;6.730;2022-08-24T14:21:09;6.80;;;4.57;;
51981;SDS011;37998;53.416;6.730;2022-08-24T14:50:28;12.27;;;4.40;;
51981;SDS011;37998;53.416;6.730;2022-08-24T14:55:53;8.43;;;5.05;;
51981;SDS011;37998;53.416;6.730;2022-08-24T15:09:05;6.72;;;5.22;;
51981;SDS011;37998;53.416;6.730;2022-08-24T15:14:54;5.93;;;5.22;;
51981;SDS011;37998;53.416;6.730;2022-08-24T15:17:36;7.43;;;5.40;;
51981;SDS011;37998;53.416;6.730;2022-08-24T15:20:18;10.07;;;5.47;;
51981;SDS011;37998;53.416;6.730;2022-08-24T15:22:56;9.07;;;6.88;;
51981;SDS011;37998;53.416;6.730;2022-08-24T15:25:46;6.50;;;5.80;;
51981;SDS011;37998;53.416;6.730;2022-08-24T15:28:27;9.25;;;5.40;;
51981;SDS011;37998;53.416;6.730;2022-08-24T15:33:23;10.43;;;6.47;;
51981;SDS011;37998;53.416;6.730;2022-08-24T15:35:50;9.43;;;6.70;;
51981;SDS011;37998;53.416;6.730;2022-08-24T15:38:38;10.07;;;8.00;;
51981;SDS011;37998;53.416;6.730;2022-08-24T15:46:18;9.10;;;8.10;;
51981;SDS011;37998;53.416;6.730;2022-08-24T15:48:52;9.35;;;8.43;;
51981;SDS011;37998;53.416;6.730;2022-08-24T15:51:38;14.40;;;7.57;;
51981;SDS011;37998;53.416;6.730;2022-08-24T15:56:47;12.45;;;9.82;;
51981;SDS011;37998;53.416;6.730;2022-08-24T16:00:17;15.50;;;9.52;;
51981;SDS011;37998;53.416;6.730;2022-08-24T16:08:10;11.68;;;6.35;;
51981;SDS011;37998;53.416;6.730;2022-08-24T16:13:05;8.85;;;6.35;;
51981;SDS011;37998;53.416;6.730;2022-08-24T16:15:57;8.93;;;6.78;;
51981;SDS011;37998;53.416;6.730;2022-08-24T16:18:52;9.35;;;8.45;;
51981;SDS011;37998;53.416;6.730;2022-08-24T16:21:38;12.07;;;8.70;;
51981;SDS011;37998;53.416;6.730;2022-08-24T16:32:09;9.70;;;6.40;;
51981;SDS011;37998;53.416;6.730;2022-08-24T16:34:40;7.43;;;6.10;;
51981;SDS011;37998;53.416;6.730;2022-08-24T16:37:07;8.98;;;6.70;;
51981;SDS011;37998;53.416;6.730;2022-08-24T16:39:33;9.10;;;6.00;;
51981;SDS011;37998;53.416;6.730;2022-08-24T16:42:01;9.13;;;5.75;;
51981;SDS011;37998;53.416;6.730;2022-08-24T16:44:36;9.52;;;5.47;;
51981;SDS011;37998;53.416;6.730;2022-08-24T16:47:04;9.65;;;5.50;;
51981;SDS011;37998;53.416;6.730;2022-08-24T16:49:30;9.80;;;5.95;;
51981;SDS011;37998;53.416;6.730;2022-08-24T16:51:58;8.00;;;6.38;;
51981;SDS011;37998;53.416;6.730;2022-08-24T16:54:24;10.90;;;6.22;;
51981;SDS011;37998;53.416;6.730;2022-08-24T16:56:51;7.55;;;6.70;;
51981;SDS011;37998;53.416;6.730;2022-08-24T16:59:19;13.15;;;5.95;;
51981;SDS011;37998;53.416;6.730;2022-08-24T17:01:52;9.60;;;6.38;;
51981;SDS011;37998;53.416;6.730;2022-08-24T17:04:18;6.82;;;6.13;;
51981;SDS011;37998;53.416;6.730;2022-08-24T17:06:44;12.15;;;6.32;;
51981;SDS011;37998;53.416;6.730;2022-08-24T17:09:12;8.95;;;6.78;;
51981;SDS011;37998;53.416;6.730;2022-08-24T17:11:37;6.85;;;5.47;;
51981;SDS011;37998;53.416;6.730;2022-08-24T17:14:03;8.95;;;6.25;;
51981;SDS011;37998;53.416;6.730;2022-08-24T17:16:32;11.27;;;6.05;;
51981;SDS011;37998;53.416;6.730;2022-08-24T17:18:58;9.10;;;6.10;;
51981;SDS011;37998;53.416;6.730;2022-08-24T17:21:25;9.50;;;6.07;;
51981;SDS011;37998;53.416;6.730;2022-08-24T17:23:51;8.80;;;5.93;;
51981;SDS011;37998;53.416;6.730;2022-08-24T17:26:16;12.25;;;6.35;;
51981;SDS011;37998;53.416;6.730;2022-08-24T17:28:43;9.88;;;6.40;;
51981;SDS011;37998;53.416;6.730;2022-08-24T17:31:11;10.40;;;6.28;;
51981;SDS011;37998;53.416;6.730;2022-08-24T17:33:37;8.45;;;5.90;;
51981;SDS011;37998;53.416;6.730;2022-08-24T17:36:04;10.63;;;7.07;;
51981;SDS011;37998;53.416;6.730;2022-08-24T17:38:31;11.00;;;6.55;;
51981;SDS011;37998;53.416;6.730;2022-08-24T17:41:00;8.55;;;6.75;;
51981;SDS011;37998;53.416;6.730;2022-08-24T17:43:25;12.02;;;8.32;;
51981;SDS011;37998;53.416;6.730;2022-08-24T17:45:51;8.65;;;6.90;;
51981;SDS011;37998;53.416;6.730;2022-08-24T17:48:19;11.77;;;8.48;;
51981;SDS011;37998;53.416;6.730;2022-08-24T17:50:48;12.80;;;8.43;;
51981;SDS011;37998;53.416;6.730;2022-08-24T17:53:13;10.50;;;7.68;;
51981;SDS011;37998;53.416;6.730;2022-08-24T17:55:39;13.23;;;7.53;;
51981;SDS011;37998;53.416;6.730;2022-08-24T17:58:05;14.60;;;8.27;;
51981;SDS011;37998;53.416;6.730;2022-08-24T18:00:30;11.18;;;8.65;;
51981;SDS011;37998;53.416;6.730;2022-08-24T18:02:56;15.60;;;8.63;;
51981;SDS011;37998;53.416;6.730;2022-08-24T18:05:22;10.68;;;7.95;;
51981;SDS011;37998;53.416;6.730;2022-08-24T18:07:48;13.07;;;8.45;;
51981;SDS011;37998;53.416;6.730;2022-08-24T18:10:17;12.70;;;8.90;;
51981;SDS011;37998;53.416;6.730;2022-08-24T18:12:46;11.82;;;8.07;;
51981;SDS011;37998;53.416;6.730;2022-08-24T18:15:12;11.05;;;8.90;;
51981;SDS011;37998;53.416;6.730;2022-08-24T18:17:39;12.80;;;9.07;;
51981;SDS011;37998;53.416;6.730;2022-08-24T18:20:07;13.68;;;8.52;;
51981;SDS011;37998;53.416;6.730;2022-08-24T18:22:35;10.35;;;8.80;;
51981;SDS011;37998;53.416;6.730;2022-08-24T18:25:08;13.35;;;8.80;;
51981;SDS011;37998;53.416;6.730;2022-08-24T18:27:36;10.57;;;9.50;;
51981;SDS011;37998;53.416;6.730;2022-08-24T18:30:03;14.55;;;9.88;;
51981;SDS011;37998;53.416;6.730;2022-08-24T18:32:31;14.40;;;9.70;;
51981;SDS011;37998;53.416;6.730;2022-08-24T18:34:56;12.45;;;9.10;;
51981;SDS011;37998;53.416;6.730;2022-08-24T18:37:22;12.25;;;9.82;;
51981;SDS011;37998;53.416;6.730;2022-08-24T18:39:48;11.38;;;9.30;;
51981;SDS011;37998;53.416;6.730;2022-08-24T18:42:14;11.98;;;8.70;;
51981;SDS011;37998;53.416;6.730;2022-08-24T18:44:41;12.00;;;10.50;;
51981;SDS011;37998;53.416;6.730;2022-08-24T18:47:07;12.57;;;9.20;;
51981;SDS011;37998;53.416;6.730;2022-08-24T18:49:33;13.65;;;10.35;;
51981;SDS011;37998;53.416;6.730;2022-08-24T18:51:59;14.50;;;10.35;;
51981;SDS011;37998;53.416;6.730;2022-08-24T18:54:34;12.27;;;9.43;;
51981;SDS011;37998;53.416;6.730;2022-08-24T18:57:02;12.95;;;9.52;;